Terminal Aerodrome Forecast
Issued by NWS

Current Version | Previous Version | Text Only | Print | Product List | Glossary On
Versions: 1 2 3 4 5 6 7 8 9 10 11 12 13
000
FTUS45 KRIW 161700
TAFCOD
TAF
KCOD 161721Z 1618/1718 12007KT P6SM VCSH SCT050 BKN100
     FM170300 20007KT P6SM SCT080 BKN150
     FM171400 VRB06KT P6SM FEW080 SCT200
      AMD LTD TO CLD VIS AND WIND=

USA.gov is the U.S. government's official web portal to all federal, state and local government web resources and services.